sensor_id;sensor_type;location;lat;lon;timestamp;P1;durP1;ratioP1;P2;durP2;ratioP2
48207;SDS011;33997;53.278;9.708;2023-11-19T00:01:55;1.98;;;0.47;;
48207;SDS011;33997;53.278;9.708;2023-11-19T00:04:21;1.55;;;0.70;;
48207;SDS011;33997;53.278;9.708;2023-11-19T00:06:47;0.65;;;0.50;;
48207;SDS011;33997;53.278;9.708;2023-11-19T00:09:13;0.90;;;0.55;;
48207;SDS011;33997;53.278;9.708;2023-11-19T00:11:38;0.75;;;0.57;;
48207;SDS011;33997;53.278;9.708;2023-11-19T00:14:04;0.50;;;0.50;;
48207;SDS011;33997;53.278;9.708;2023-11-19T00:16:33;0.60;;;0.60;;
48207;SDS011;33997;53.278;9.708;2023-11-19T00:18:59;0.52;;;0.50;;
48207;SDS011;33997;53.278;9.708;2023-11-19T00:21:25;0.50;;;0.40;;
48207;SDS011;33997;53.278;9.708;2023-11-19T00:23:53;0.73;;;0.70;;
48207;SDS011;33997;53.278;9.708;2023-11-19T00:26:19;0.93;;;0.60;;
48207;SDS011;33997;53.278;9.708;2023-11-19T00:28:44;0.70;;;0.50;;
48207;SDS011;33997;53.278;9.708;2023-11-19T00:31:12;1.65;;;0.60;;
48207;SDS011;33997;53.278;9.708;2023-11-19T00:33:38;0.80;;;0.52;;
48207;SDS011;33997;53.278;9.708;2023-11-19T00:36:04;1.05;;;0.75;;
48207;SDS011;33997;53.278;9.708;2023-11-19T00:38:30;0.75;;;0.50;;
48207;SDS011;33997;53.278;9.708;2023-11-19T00:40:56;1.23;;;0.55;;
48207;SDS011;33997;53.278;9.708;2023-11-19T00:43:21;0.75;;;0.60;;
48207;SDS011;33997;53.278;9.708;2023-11-19T00:45:47;0.50;;;0.50;;
48207;SDS011;33997;53.278;9.708;2023-11-19T00:48:15;0.47;;;0.47;;
48207;SDS011;33997;53.278;9.708;2023-11-19T00:50:41;1.52;;;0.50;;
48207;SDS011;33997;53.278;9.708;2023-11-19T00:53:09;0.68;;;0.68;;
48207;SDS011;33997;53.278;9.708;2023-11-19T00:55:34;0.52;;;0.40;;
48207;SDS011;33997;53.278;9.708;2023-11-19T00:58:00;0.50;;;0.50;;
48207;SDS011;33997;53.278;9.708;2023-11-19T01:00:25;0.50;;;0.50;;
48207;SDS011;33997;53.278;9.708;2023-11-19T01:02:52;0.52;;;0.40;;
48207;SDS011;33997;53.278;9.708;2023-11-19T01:05:18;0.63;;;0.22;;
48207;SDS011;33997;53.278;9.708;2023-11-19T01:07:47;0.38;;;0.38;;
48207;SDS011;33997;53.278;9.708;2023-11-19T01:10:13;0.30;;;0.30;;
48207;SDS011;33997;53.278;9.708;2023-11-19T01:12:38;0.52;;;0.40;;
48207;SDS011;33997;53.278;9.708;2023-11-19T01:15:05;0.40;;;0.40;;
48207;SDS011;33997;53.278;9.708;2023-11-19T01:17:31;0.50;;;0.32;;
48207;SDS011;33997;53.278;9.708;2023-11-19T01:19:57;0.60;;;0.40;;
48207;SDS011;33997;53.278;9.708;2023-11-19T01:22:22;0.70;;;0.52;;
48207;SDS011;33997;53.278;9.708;2023-11-19T01:24:48;3.22;;;0.70;;
48207;SDS011;33997;53.278;9.708;2023-11-19T01:27:13;0.40;;;0.40;;
48207;SDS011;33997;53.278;9.708;2023-11-19T01:29:39;0.68;;;0.47;;
48207;SDS011;33997;53.278;9.708;2023-11-19T01:32:04;0.73;;;0.52;;
48207;SDS011;33997;53.278;9.708;2023-11-19T01:34:30;0.55;;;0.40;;
48207;SDS011;33997;53.278;9.708;2023-11-19T01:36:56;0.63;;;0.50;;
48207;SDS011;33997;53.278;9.708;2023-11-19T01:39:21;0.50;;;0.40;;
48207;SDS011;33997;53.278;9.708;2023-11-19T01:41:47;0.88;;;0.57;;
48207;SDS011;33997;53.278;9.708;2023-11-19T01:44:12;0.70;;;0.45;;
48207;SDS011;33997;53.278;9.708;2023-11-19T01:46:38;0.63;;;0.40;;
48207;SDS011;33997;53.278;9.708;2023-11-19T01:49:07;2.00;;;0.52;;
48207;SDS011;33997;53.278;9.708;2023-11-19T01:51:33;0.60;;;0.50;;
48207;SDS011;33997;53.278;9.708;2023-11-19T01:53:59;0.30;;;0.30;;
48207;SDS011;33997;53.278;9.708;2023-11-19T01:56:25;0.88;;;0.50;;
48207;SDS011;33997;53.278;9.708;2023-11-19T01:58:51;0.55;;;0.40;;
48207;SDS011;33997;53.278;9.708;2023-11-19T02:01:19;0.68;;;0.50;;
48207;SDS011;33997;53.278;9.708;2023-11-19T02:03:45;0.95;;;0.70;;
48207;SDS011;33997;53.278;9.708;2023-11-19T02:06:12;2.10;;;0.68;;
48207;SDS011;33997;53.278;9.708;2023-11-19T02:08:38;0.85;;;0.65;;
48207;SDS011;33997;53.278;9.708;2023-11-19T02:11:04;0.60;;;0.60;;
48207;SDS011;33997;53.278;9.708;2023-11-19T02:13:31;0.70;;;0.50;;
48207;SDS011;33997;53.278;9.708;2023-11-19T02:15:57;0.73;;;0.70;;
48207;SDS011;33997;53.278;9.708;2023-11-19T02:18:25;0.77;;;0.50;;
48207;SDS011;33997;53.278;9.708;2023-11-19T02:20:55;1.15;;;0.80;;
48207;SDS011;33997;53.278;9.708;2023-11-19T02:23:21;0.95;;;0.80;;
48207;SDS011;33997;53.278;9.708;2023-11-19T02:25:50;1.27;;;0.82;;
48207;SDS011;33997;53.278;9.708;2023-11-19T02:28:22;0.47;;;0.40;;
48207;SDS011;33997;53.278;9.708;2023-11-19T02:30:48;0.80;;;0.68;;
48207;SDS011;33997;53.278;9.708;2023-11-19T02:33:13;1.08;;;0.77;;
48207;SDS011;33997;53.278;9.708;2023-11-19T02:35:40;0.88;;;0.65;;
48207;SDS011;33997;53.278;9.708;2023-11-19T02:38:06;0.85;;;0.60;;
48207;SDS011;33997;53.278;9.708;2023-11-19T02:40:32;1.10;;;0.73;;
48207;SDS011;33997;53.278;9.708;2023-11-19T02:42:58;1.30;;;0.80;;
48207;SDS011;33997;53.278;9.708;2023-11-19T02:45:23;1.05;;;0.73;;
48207;SDS011;33997;53.278;9.708;2023-11-19T02:47:50;0.93;;;0.70;;
48207;SDS011;33997;53.278;9.708;2023-11-19T02:50:16;1.10;;;0.90;;
48207;SDS011;33997;53.278;9.708;2023-11-19T02:52:43;0.90;;;0.65;;
48207;SDS011;33997;53.278;9.708;2023-11-19T02:55:10;0.98;;;0.80;;
48207;SDS011;33997;53.278;9.708;2023-11-19T02:57:40;1.30;;;0.77;;
48207;SDS011;33997;53.278;9.708;2023-11-19T03:00:16;1.48;;;0.88;;
48207;SDS011;33997;53.278;9.708;2023-11-19T03:02:43;2.47;;;0.95;;
48207;SDS011;33997;53.278;9.708;2023-11-19T03:05:12;1.65;;;0.93;;
48207;SDS011;33997;53.278;9.708;2023-11-19T03:07:39;1.55;;;0.80;;
48207;SDS011;33997;53.278;9.708;2023-11-19T03:10:08;0.70;;;0.57;;
48207;SDS011;33997;53.278;9.708;2023-11-19T03:12:41;1.58;;;0.80;;
48207;SDS011;33997;53.278;9.708;2023-11-19T03:15:07;1.20;;;0.77;;
48207;SDS011;33997;53.278;9.708;2023-11-19T03:17:35;2.22;;;0.93;;
48207;SDS011;33997;53.278;9.708;2023-11-19T03:20:02;1.60;;;0.90;;
48207;SDS011;33997;53.278;9.708;2023-11-19T03:22:31;2.03;;;1.20;;
48207;SDS011;33997;53.278;9.708;2023-11-19T03:24:59;2.90;;;1.30;;
48207;SDS011;33997;53.278;9.708;2023-11-19T03:27:24;2.90;;;1.55;;
48207;SDS011;33997;53.278;9.708;2023-11-19T03:29:50;3.38;;;1.70;;
48207;SDS011;33997;53.278;9.708;2023-11-19T03:32:15;4.00;;;1.75;;
48207;SDS011;33997;53.278;9.708;2023-11-19T03:34:41;3.33;;;1.80;;
48207;SDS011;33997;53.278;9.708;2023-11-19T03:37:06;3.78;;;1.58;;
48207;SDS011;33997;53.278;9.708;2023-11-19T03:39:32;3.65;;;1.92;;
48207;SDS011;33997;53.278;9.708;2023-11-19T03:41:57;2.92;;;1.60;;
48207;SDS011;33997;53.278;9.708;2023-11-19T03:44:23;4.25;;;1.98;;
48207;SDS011;33997;53.278;9.708;2023-11-19T03:46:51;3.85;;;2.10;;
48207;SDS011;33997;53.278;9.708;2023-11-19T03:49:16;4.45;;;2.15;;
48207;SDS011;33997;53.278;9.708;2023-11-19T03:51:42;4.80;;;2.42;;
48207;SDS011;33997;53.278;9.708;2023-11-19T03:54:07;5.38;;;2.35;;
48207;SDS011;33997;53.278;9.708;2023-11-19T03:56:33;5.47;;;2.80;;
48207;SDS011;33997;53.278;9.708;2023-11-19T03:58:59;5.95;;;2.65;;
48207;SDS011;33997;53.278;9.708;2023-11-19T04:01:24;6.63;;;3.22;;
48207;SDS011;33997;53.278;9.708;2023-11-19T04:03:49;5.60;;;2.72;;
48207;SDS011;33997;53.278;9.708;2023-11-19T04:06:15;7.47;;;3.70;;
48207;SDS011;33997;53.278;9.708;2023-11-19T04:08:40;5.10;;;2.63;;
48207;SDS011;33997;53.278;9.708;2023-11-19T04:11:06;6.30;;;3.05;;
48207;SDS011;33997;53.278;9.708;2023-11-19T04:13:33;5.88;;;3.08;;
48207;SDS011;33997;53.278;9.708;2023-11-19T04:15:59;7.43;;;3.20;;
48207;SDS011;33997;53.278;9.708;2023-11-19T04:18:25;7.03;;;3.60;;
48207;SDS011;33997;53.278;9.708;2023-11-19T04:20:50;6.22;;;3.28;;
48207;SDS011;33997;53.278;9.708;2023-11-19T04:23:16;7.85;;;4.00;;
48207;SDS011;33997;53.278;9.708;2023-11-19T04:25:41;8.30;;;4.40;;
48207;SDS011;33997;53.278;9.708;2023-11-19T04:28:07;8.23;;;4.10;;
48207;SDS011;33997;53.278;9.708;2023-11-19T04:30:33;7.70;;;3.90;;
48207;SDS011;33997;53.278;9.708;2023-11-19T04:32:58;8.30;;;4.53;;
48207;SDS011;33997;53.278;9.708;2023-11-19T04:35:24;7.75;;;4.05;;
48207;SDS011;33997;53.278;9.708;2023-11-19T04:37:51;7.65;;;3.92;;
48207;SDS011;33997;53.278;9.708;2023-11-19T04:40:16;6.65;;;3.95;;
48207;SDS011;33997;53.278;9.708;2023-11-19T04:42:43;7.53;;;4.45;;
48207;SDS011;33997;53.278;9.708;2023-11-19T04:45:09;7.60;;;4.15;;
48207;SDS011;33997;53.278;9.708;2023-11-19T04:47:35;10.88;;;5.18;;
48207;SDS011;33997;53.278;9.708;2023-11-19T04:50:04;7.72;;;4.10;;
48207;SDS011;33997;53.278;9.708;2023-11-19T04:52:30;8.48;;;4.32;;
48207;SDS011;33997;53.278;9.708;2023-11-19T04:54:55;8.52;;;4.07;;
48207;SDS011;33997;53.278;9.708;2023-11-19T04:57:20;7.80;;;3.90;;
48207;SDS011;33997;53.278;9.708;2023-11-19T04:59:46;9.35;;;4.25;;
48207;SDS011;33997;53.278;9.708;2023-11-19T05:02:12;8.93;;;4.97;;
48207;SDS011;33997;53.278;9.708;2023-11-19T05:04:37;6.03;;;3.30;;
48207;SDS011;33997;53.278;9.708;2023-11-19T05:07:09;8.50;;;3.70;;
48207;SDS011;33997;53.278;9.708;2023-11-19T05:09:34;8.02;;;4.47;;
48207;SDS011;33997;53.278;9.708;2023-11-19T05:12:00;7.80;;;4.07;;
48207;SDS011;33997;53.278;9.708;2023-11-19T05:14:26;8.80;;;4.05;;
48207;SDS011;33997;53.278;9.708;2023-11-19T05:16:52;7.50;;;3.95;;
48207;SDS011;33997;53.278;9.708;2023-11-19T05:19:18;9.32;;;4.20;;
48207;SDS011;33997;53.278;9.708;2023-11-19T05:21:43;8.55;;;5.07;;
48207;SDS011;33997;53.278;9.708;2023-11-19T05:24:09;7.03;;;3.90;;
48207;SDS011;33997;53.278;9.708;2023-11-19T05:26:35;10.88;;;4.68;;
48207;SDS011;33997;53.278;9.708;2023-11-19T05:29:00;9.20;;;4.43;;
48207;SDS011;33997;53.278;9.708;2023-11-19T05:31:27;8.88;;;4.60;;
48207;SDS011;33997;53.278;9.708;2023-11-19T05:33:52;7.38;;;4.32;;
48207;SDS011;33997;53.278;9.708;2023-11-19T05:36:18;8.00;;;4.03;;
48207;SDS011;33997;53.278;9.708;2023-11-19T05:38:43;8.55;;;4.47;;
48207;SDS011;33997;53.278;9.708;2023-11-19T05:41:09;7.07;;;4.15;;
48207;SDS011;33997;53.278;9.708;2023-11-19T05:43:35;10.43;;;4.63;;
48207;SDS011;33997;53.278;9.708;2023-11-19T05:46:00;7.20;;;4.45;;
48207;SDS011;33997;53.278;9.708;2023-11-19T05:48:26;8.18;;;4.60;;
48207;SDS011;33997;53.278;9.708;2023-11-19T05:50:52;9.60;;;4.28;;
48207;SDS011;33997;53.278;9.708;2023-11-19T05:53:18;8.32;;;4.57;;
48207;SDS011;33997;53.278;9.708;2023-11-19T05:55:44;11.13;;;4.85;;
48207;SDS011;33997;53.278;9.708;2023-11-19T05:58:13;8.10;;;4.82;;
48207;SDS011;33997;53.278;9.708;2023-11-19T06:00:39;7.90;;;4.55;;
48207;SDS011;33997;53.278;9.708;2023-11-19T06:03:08;8.90;;;4.65;;
48207;SDS011;33997;53.278;9.708;2023-11-19T06:05:33;7.95;;;4.38;;
48207;SDS011;33997;53.278;9.708;2023-11-19T06:07:59;8.57;;;4.72;;
48207;SDS011;33997;53.278;9.708;2023-11-19T06:10:24;7.72;;;4.22;;
48207;SDS011;33997;53.278;9.708;2023-11-19T06:12:58;7.75;;;3.65;;
48207;SDS011;33997;53.278;9.708;2023-11-19T06:15:25;8.63;;;4.90;;
48207;SDS011;33997;53.278;9.708;2023-11-19T06:17:52;7.57;;;4.00;;
48207;SDS011;33997;53.278;9.708;2023-11-19T06:20:17;8.32;;;4.20;;
48207;SDS011;33997;53.278;9.708;2023-11-19T06:22:44;8.45;;;4.05;;
48207;SDS011;33997;53.278;9.708;2023-11-19T06:25:10;11.15;;;4.45;;
48207;SDS011;33997;53.278;9.708;2023-11-19T06:27:36;7.38;;;4.20;;
48207;SDS011;33997;53.278;9.708;2023-11-19T06:30:02;11.65;;;4.40;;
48207;SDS011;33997;53.278;9.708;2023-11-19T06:32:27;7.22;;;3.70;;
48207;SDS011;33997;53.278;9.708;2023-11-19T06:34:53;8.93;;;4.13;;
48207;SDS011;33997;53.278;9.708;2023-11-19T06:37:19;7.18;;;3.90;;
48207;SDS011;33997;53.278;9.708;2023-11-19T06:39:45;9.32;;;3.78;;
48207;SDS011;33997;53.278;9.708;2023-11-19T06:42:10;8.02;;;4.57;;
48207;SDS011;33997;53.278;9.708;2023-11-19T06:44:36;7.93;;;3.40;;
48207;SDS011;33997;53.278;9.708;2023-11-19T06:47:01;7.35;;;3.95;;
48207;SDS011;33997;53.278;9.708;2023-11-19T06:49:27;8.05;;;4.05;;
48207;SDS011;33997;53.278;9.708;2023-11-19T06:51:53;5.72;;;3.35;;
48207;SDS011;33997;53.278;9.708;2023-11-19T06:54:18;7.68;;;3.35;;
48207;SDS011;33997;53.278;9.708;2023-11-19T06:56:43;5.78;;;3.08;;
48207;SDS011;33997;53.278;9.708;2023-11-19T06:59:09;6.13;;;3.00;;
48207;SDS011;33997;53.278;9.708;2023-11-19T07:01:35;7.53;;;3.47;;
48207;SDS011;33997;53.278;9.708;2023-11-19T07:04:01;5.78;;;2.75;;
48207;SDS011;33997;53.278;9.708;2023-11-19T07:06:33;5.10;;;2.97;;
48207;SDS011;33997;53.278;9.708;2023-11-19T07:08:59;3.83;;;2.72;;
48207;SDS011;33997;53.278;9.708;2023-11-19T07:11:27;5.13;;;2.88;;
48207;SDS011;33997;53.278;9.708;2023-11-19T07:13:54;4.85;;;2.88;;
48207;SDS011;33997;53.278;9.708;2023-11-19T07:16:19;6.05;;;3.45;;
48207;SDS011;33997;53.278;9.708;2023-11-19T07:18:46;7.18;;;3.40;;
48207;SDS011;33997;53.278;9.708;2023-11-19T07:21:15;6.97;;;3.40;;
48207;SDS011;33997;53.278;9.708;2023-11-19T07:23:40;6.15;;;2.83;;
48207;SDS011;33997;53.278;9.708;2023-11-19T07:26:06;5.10;;;2.60;;
48207;SDS011;33997;53.278;9.708;2023-11-19T07:28:35;4.13;;;2.38;;
48207;SDS011;33997;53.278;9.708;2023-11-19T07:31:01;3.45;;;1.90;;
48207;SDS011;33997;53.278;9.708;2023-11-19T07:33:27;6.43;;;2.08;;
48207;SDS011;33997;53.278;9.708;2023-11-19T07:35:52;2.53;;;2.00;;
48207;SDS011;33997;53.278;9.708;2023-11-19T07:38:17;4.32;;;1.70;;
48207;SDS011;33997;53.278;9.708;2023-11-19T07:40:43;6.30;;;2.40;;
48207;SDS011;33997;53.278;9.708;2023-11-19T07:43:09;3.35;;;1.80;;
48207;SDS011;33997;53.278;9.708;2023-11-19T07:45:34;4.88;;;1.90;;
48207;SDS011;33997;53.278;9.708;2023-11-19T07:47:59;1.77;;;1.15;;
48207;SDS011;33997;53.278;9.708;2023-11-19T07:50:26;4.80;;;1.85;;
48207;SDS011;33997;53.278;9.708;2023-11-19T07:52:51;6.60;;;2.15;;
48207;SDS011;33997;53.278;9.708;2023-11-19T07:55:17;5.00;;;1.77;;
48207;SDS011;33997;53.278;9.708;2023-11-19T07:57:44;5.15;;;1.73;;
48207;SDS011;33997;53.278;9.708;2023-11-19T08:00:10;3.33;;;1.55;;
48207;SDS011;33997;53.278;9.708;2023-11-19T08:02:39;3.92;;;1.25;;
48207;SDS011;33997;53.278;9.708;2023-11-19T08:05:04;6.65;;;1.83;;
48207;SDS011;33997;53.278;9.708;2023-11-19T08:07:30;3.95;;;1.23;;
48207;SDS011;33997;53.278;9.708;2023-11-19T08:09:56;1.95;;;1.33;;
48207;SDS011;33997;53.278;9.708;2023-11-19T08:12:21;4.80;;;1.95;;
48207;SDS011;33997;53.278;9.708;2023-11-19T08:14:47;5.32;;;1.83;;
48207;SDS011;33997;53.278;9.708;2023-11-19T08:17:14;5.35;;;2.33;;
48207;SDS011;33997;53.278;9.708;2023-11-19T08:19:39;7.65;;;2.75;;
48207;SDS011;33997;53.278;9.708;2023-11-19T08:22:05;5.40;;;2.05;;
48207;SDS011;33997;53.278;9.708;2023-11-19T08:24:30;5.47;;;1.60;;
48207;SDS011;33997;53.278;9.708;2023-11-19T08:26:56;8.80;;;1.83;;
48207;SDS011;33997;53.278;9.708;2023-11-19T08:29:21;3.05;;;1.48;;
48207;SDS011;33997;53.278;9.708;2023-11-19T08:31:46;4.25;;;2.10;;
48207;SDS011;33997;53.278;9.708;2023-11-19T08:34:12;4.35;;;1.80;;
48207;SDS011;33997;53.278;9.708;2023-11-19T08:36:37;2.70;;;1.10;;
48207;SDS011;33997;53.278;9.708;2023-11-19T08:39:03;5.28;;;1.88;;
48207;SDS011;33997;53.278;9.708;2023-11-19T08:41:28;3.05;;;1.90;;
48207;SDS011;33997;53.278;9.708;2023-11-19T08:43:54;9.25;;;2.00;;
48207;SDS011;33997;53.278;9.708;2023-11-19T08:46:19;6.05;;;1.88;;
48207;SDS011;33997;53.278;9.708;2023-11-19T08:48:45;5.50;;;1.50;;
48207;SDS011;33997;53.278;9.708;2023-11-19T08:51:11;8.48;;;2.42;;
48207;SDS011;33997;53.278;9.708;2023-11-19T08:53:37;3.72;;;2.08;;
48207;SDS011;33997;53.278;9.708;2023-11-19T08:56:02;4.45;;;1.60;;
48207;SDS011;33997;53.278;9.708;2023-11-19T08:58:28;8.10;;;2.53;;
48207;SDS011;33997;53.278;9.708;2023-11-19T09:00:54;7.30;;;1.58;;
48207;SDS011;33997;53.278;9.708;2023-11-19T09:03:20;6.47;;;1.77;;
48207;SDS011;33997;53.278;9.708;2023-11-19T09:05:45;5.28;;;1.77;;
48207;SDS011;33997;53.278;9.708;2023-11-19T09:08:11;5.85;;;1.95;;
48207;SDS011;33997;53.278;9.708;2023-11-19T09:10:37;7.30;;;1.95;;
48207;SDS011;33997;53.278;9.708;2023-11-19T09:13:02;3.40;;;1.58;;
48207;SDS011;33997;53.278;9.708;2023-11-19T09:15:28;3.67;;;1.65;;
48207;SDS011;33997;53.278;9.708;2023-11-19T09:17:54;8.88;;;1.98;;
48207;SDS011;33997;53.278;9.708;2023-11-19T09:20:19;6.00;;;1.90;;
48207;SDS011;33997;53.278;9.708;2023-11-19T09:22:45;3.47;;;1.67;;
48207;SDS011;33997;53.278;9.708;2023-11-19T09:25:11;4.47;;;1.45;;
48207;SDS011;33997;53.278;9.708;2023-11-19T09:27:36;9.50;;;1.73;;
48207;SDS011;33997;53.278;9.708;2023-11-19T09:30:02;4.80;;;1.70;;
48207;SDS011;33997;53.278;9.708;2023-11-19T09:32:28;5.45;;;1.95;;
48207;SDS011;33997;53.278;9.708;2023-11-19T09:34:54;6.82;;;2.03;;
48207;SDS011;33997;53.278;9.708;2023-11-19T09:37:19;5.82;;;1.25;;
48207;SDS011;33997;53.278;9.708;2023-11-19T09:39:45;4.97;;;1.65;;
48207;SDS011;33997;53.278;9.708;2023-11-19T09:42:11;2.63;;;1.45;;
48207;SDS011;33997;53.278;9.708;2023-11-19T09:44:40;9.40;;;2.22;;
48207;SDS011;33997;53.278;9.708;2023-11-19T09:47:08;4.70;;;0.95;;
48207;SDS011;33997;53.278;9.708;2023-11-19T09:49:35;3.97;;;1.67;;
48207;SDS011;33997;53.278;9.708;2023-11-19T09:52:01;3.08;;;1.38;;
48207;SDS011;33997;53.278;9.708;2023-11-19T09:54:27;5.15;;;1.80;;
48207;SDS011;33997;53.278;9.708;2023-11-19T09:56:53;8.23;;;1.83;;
48207;SDS011;33997;53.278;9.708;2023-11-19T10:01:50;6.35;;;2.13;;
48207;SDS011;33997;53.278;9.708;2023-11-19T10:04:16;7.88;;;1.80;;
48207;SDS011;33997;53.278;9.708;2023-11-19T10:06:42;6.95;;;1.67;;
48207;SDS011;33997;53.278;9.708;2023-11-19T10:09:07;5.63;;;1.40;;
48207;SDS011;33997;53.278;9.708;2023-11-19T10:11:33;7.93;;;2.22;;
48207;SDS011;33997;53.278;9.708;2023-11-19T10:13:59;3.80;;;1.30;;
48207;SDS011;33997;53.278;9.708;2023-11-19T10:16:28;6.30;;;2.17;;
48207;SDS011;33997;53.278;9.708;2023-11-19T10:18:56;4.30;;;1.27;;
48207;SDS011;33997;53.278;9.708;2023-11-19T10:21:21;6.85;;;1.33;;
48207;SDS011;33997;53.278;9.708;2023-11-19T10:23:48;4.22;;;1.50;;
48207;SDS011;33997;53.278;9.708;2023-11-19T10:26:22;10.10;;;1.63;;
48207;SDS011;33997;53.278;9.708;2023-11-19T10:28:48;6.32;;;2.13;;
48207;SDS011;33997;53.278;9.708;2023-11-19T10:31:14;8.70;;;1.63;;
48207;SDS011;33997;53.278;9.708;2023-11-19T10:33:40;5.53;;;1.83;;
48207;SDS011;33997;53.278;9.708;2023-11-19T10:36:06;6.13;;;1.38;;
48207;SDS011;33997;53.278;9.708;2023-11-19T10:38:31;4.32;;;1.10;;
48207;SDS011;33997;53.278;9.708;2023-11-19T10:40:57;4.25;;;1.20;;
48207;SDS011;33997;53.278;9.708;2023-11-19T10:43:23;9.20;;;1.80;;
48207;SDS011;33997;53.278;9.708;2023-11-19T10:45:50;4.68;;;1.35;;
48207;SDS011;33997;53.278;9.708;2023-11-19T10:48:16;4.93;;;1.30;;
48207;SDS011;33997;53.278;9.708;2023-11-19T10:50:42;4.85;;;1.10;;
48207;SDS011;33997;53.278;9.708;2023-11-19T10:53:10;9.52;;;1.40;;
48207;SDS011;33997;53.278;9.708;2023-11-19T10:55:39;10.45;;;1.60;;
48207;SDS011;33997;53.278;9.708;2023-11-19T10:58:05;3.47;;;1.33;;
48207;SDS011;33997;53.278;9.708;2023-11-19T11:00:44;2.85;;;1.00;;
48207;SDS011;33997;53.278;9.708;2023-11-19T11:03:19;5.32;;;1.38;;
48207;SDS011;33997;53.278;9.708;2023-11-19T11:05:47;6.55;;;1.55;;
48207;SDS011;33997;53.278;9.708;2023-11-19T11:08:15;1.80;;;1.13;;
48207;SDS011;33997;53.278;9.708;2023-11-19T11:10:45;4.90;;;1.33;;
48207;SDS011;33997;53.278;9.708;2023-11-19T11:13:29;2.28;;;0.95;;
48207;SDS011;33997;53.278;9.708;2023-11-19T11:15:56;3.65;;;1.65;;
48207;SDS011;33997;53.278;9.708;2023-11-19T11:18:23;6.20;;;1.75;;
48207;SDS011;33997;53.278;9.708;2023-11-19T11:20:52;5.20;;;1.30;;
48207;SDS011;33997;53.278;9.708;2023-11-19T11:23:44;4.40;;;1.38;;
48207;SDS011;33997;53.278;9.708;2023-11-19T11:26:35;11.60;;;1.85;;
48207;SDS011;33997;53.278;9.708;2023-11-19T11:29:05;6.60;;;1.70;;
48207;SDS011;33997;53.278;9.708;2023-11-19T11:31:48;5.22;;;1.27;;
48207;SDS011;33997;53.278;9.708;2023-11-19T11:37:18;6.20;;;1.80;;
48207;SDS011;33997;53.278;9.708;2023-11-19T11:39:57;4.32;;;1.73;;
48207;SDS011;33997;53.278;9.708;2023-11-19T11:45:09;3.88;;;1.00;;
48207;SDS011;33997;53.278;9.708;2023-11-19T11:50:16;3.83;;;1.20;;
48207;SDS011;33997;53.278;9.708;2023-11-19T11:55:27;4.93;;;0.98;;
48207;SDS011;33997;53.278;9.708;2023-11-19T11:57:54;3.55;;;1.15;;
48207;SDS011;33997;53.278;9.708;2023-11-19T12:00:26;4.63;;;1.42;;
48207;SDS011;33997;53.278;9.708;2023-11-19T12:02:56;8.23;;;1.52;;
48207;SDS011;33997;53.278;9.708;2023-11-19T12:05:22;5.50;;;1.35;;
48207;SDS011;33997;53.278;9.708;2023-11-19T12:07:54;2.60;;;1.40;;
48207;SDS011;33997;53.278;9.708;2023-11-19T12:10:20;5.55;;;1.50;;
48207;SDS011;33997;53.278;9.708;2023-11-19T12:12:47;6.30;;;1.85;;
48207;SDS011;33997;53.278;9.708;2023-11-19T12:15:12;6.25;;;1.90;;
48207;SDS011;33997;53.278;9.708;2023-11-19T12:17:43;3.80;;;1.23;;
48207;SDS011;33997;53.278;9.708;2023-11-19T12:20:16;3.67;;;1.58;;
48207;SDS011;33997;53.278;9.708;2023-11-19T12:22:52;7.93;;;1.50;;
48207;SDS011;33997;53.278;9.708;2023-11-19T12:25:19;6.45;;;1.52;;
48207;SDS011;33997;53.278;9.708;2023-11-19T12:27:46;9.82;;;1.88;;
48207;SDS011;33997;53.278;9.708;2023-11-19T12:30:22;5.47;;;1.38;;
48207;SDS011;33997;53.278;9.708;2023-11-19T12:32:51;6.97;;;2.08;;
48207;SDS011;33997;53.278;9.708;2023-11-19T12:35:20;3.35;;;1.00;;
48207;SDS011;33997;53.278;9.708;2023-11-19T12:37:47;3.05;;;1.08;;
48207;SDS011;33997;53.278;9.708;2023-11-19T12:40:20;3.10;;;1.10;;
48207;SDS011;33997;53.278;9.708;2023-11-19T12:42:50;7.50;;;1.58;;
48207;SDS011;33997;53.278;9.708;2023-11-19T12:45:17;8.30;;;1.45;;
48207;SDS011;33997;53.278;9.708;2023-11-19T12:47:45;4.20;;;1.38;;
48207;SDS011;33997;53.278;9.708;2023-11-19T12:50:12;9.18;;;2.10;;
48207;SDS011;33997;53.278;9.708;2023-11-19T12:52:38;6.38;;;1.77;;
48207;SDS011;33997;53.278;9.708;2023-11-19T12:55:04;3.22;;;1.33;;
48207;SDS011;33997;53.278;9.708;2023-11-19T12:57:42;7.35;;;1.52;;
48207;SDS011;33997;53.278;9.708;2023-11-19T13:00:08;6.50;;;1.50;;
48207;SDS011;33997;53.278;9.708;2023-11-19T13:02:50;5.13;;;1.63;;
48207;SDS011;33997;53.278;9.708;2023-11-19T13:05:29;6.03;;;1.70;;
48207;SDS011;33997;53.278;9.708;2023-11-19T13:10:27;5.65;;;1.65;;
48207;SDS011;33997;53.278;9.708;2023-11-19T13:15:26;4.72;;;1.83;;
48207;SDS011;33997;53.278;9.708;2023-11-19T13:17:52;6.13;;;1.65;;
48207;SDS011;33997;53.278;9.708;2023-11-19T13:20:17;7.22;;;1.50;;
48207;SDS011;33997;53.278;9.708;2023-11-19T13:22:56;6.15;;;1.50;;
48207;SDS011;33997;53.278;9.708;2023-11-19T13:25:22;4.95;;;1.77;;
48207;SDS011;33997;53.278;9.708;2023-11-19T13:27:48;3.80;;;1.55;;
48207;SDS011;33997;53.278;9.708;2023-11-19T13:30:13;8.35;;;2.22;;
48207;SDS011;33997;53.278;9.708;2023-11-19T13:32:39;4.60;;;1.42;;
48207;SDS011;33997;53.278;9.708;2023-11-19T13:35:05;2.83;;;1.17;;
48207;SDS011;33997;53.278;9.708;2023-11-19T13:37:33;6.95;;;1.50;;
48207;SDS011;33997;53.278;9.708;2023-11-19T13:39:59;5.50;;;1.52;;
48207;SDS011;33997;53.278;9.708;2023-11-19T13:42:24;5.28;;;2.22;;
48207;SDS011;33997;53.278;9.708;2023-11-19T13:44:50;4.57;;;1.27;;
48207;SDS011;33997;53.278;9.708;2023-11-19T13:47:15;7.05;;;1.90;;
48207;SDS011;33997;53.278;9.708;2023-11-19T13:49:41;7.90;;;2.10;;
48207;SDS011;33997;53.278;9.708;2023-11-19T13:52:06;10.52;;;3.35;;
48207;SDS011;33997;53.278;9.708;2023-11-19T13:54:32;9.70;;;3.00;;
48207;SDS011;33997;53.278;9.708;2023-11-19T13:56:57;5.03;;;2.25;;
48207;SDS011;33997;53.278;9.708;2023-11-19T13:59:23;7.10;;;2.70;;
48207;SDS011;33997;53.278;9.708;2023-11-19T14:01:48;5.93;;;1.73;;
48207;SDS011;33997;53.278;9.708;2023-11-19T14:04:14;5.88;;;2.08;;
48207;SDS011;33997;53.278;9.708;2023-11-19T14:06:40;4.32;;;1.35;;
48207;SDS011;33997;53.278;9.708;2023-11-19T14:09:06;7.88;;;2.25;;
48207;SDS011;33997;53.278;9.708;2023-11-19T14:11:32;10.00;;;1.80;;
48207;SDS011;33997;53.278;9.708;2023-11-19T14:13:57;6.72;;;1.77;;
48207;SDS011;33997;53.278;9.708;2023-11-19T14:16:26;5.72;;;1.73;;
48207;SDS011;33997;53.278;9.708;2023-11-19T14:18:52;6.63;;;2.08;;
48207;SDS011;33997;53.278;9.708;2023-11-19T14:21:18;7.45;;;1.88;;
48207;SDS011;33997;53.278;9.708;2023-11-19T14:23:43;10.98;;;3.70;;
48207;SDS011;33997;53.278;9.708;2023-11-19T14:26:09;2.90;;;1.42;;
48207;SDS011;33997;53.278;9.708;2023-11-19T14:28:35;6.07;;;1.63;;
48207;SDS011;33997;53.278;9.708;2023-11-19T14:31:00;4.30;;;1.45;;
48207;SDS011;33997;53.278;9.708;2023-11-19T14:33:26;7.00;;;1.65;;
48207;SDS011;33997;53.278;9.708;2023-11-19T14:35:51;6.93;;;2.83;;
48207;SDS011;33997;53.278;9.708;2023-11-19T14:38:17;10.27;;;3.08;;
48207;SDS011;33997;53.278;9.708;2023-11-19T14:40:42;4.30;;;1.83;;
48207;SDS011;33997;53.278;9.708;2023-11-19T14:43:08;4.10;;;1.60;;
48207;SDS011;33997;53.278;9.708;2023-11-19T14:45:37;3.22;;;1.35;;
48207;SDS011;33997;53.278;9.708;2023-11-19T14:48:03;0.90;;;0.63;;
48207;SDS011;33997;53.278;9.708;2023-11-19T14:50:29;2.63;;;1.02;;
48207;SDS011;33997;53.278;9.708;2023-11-19T14:52:54;2.53;;;1.25;;
48207;SDS011;33997;53.278;9.708;2023-11-19T14:55:19;5.25;;;1.33;;
48207;SDS011;33997;53.278;9.708;2023-11-19T14:57:45;4.68;;;1.73;;
48207;SDS011;33997;53.278;9.708;2023-11-19T15:00:11;3.40;;;1.13;;
48207;SDS011;33997;53.278;9.708;2023-11-19T15:02:42;3.25;;;0.90;;
48207;SDS011;33997;53.278;9.708;2023-11-19T15:05:08;2.45;;;1.33;;